Time;durP1;ratioP1;P1;durP2;ratioP2;P2;SDS_P1;SDS_P2;PMS_P1;PMS_P2;Temp;Humidity;BMP_temperature;BMP_pressure;BME280_temperature;BME280_humidity;BME280_pressure;Samples;Min_cycle;Max_cycle;Signal;HPM_P1;HPM_P2
2024/03/16 00:00:50;;;;;;;1.20;0.80;;;21.50;63.00;;;;;;4957854;28;90936;-60
2024/03/16 00:06:38;;;;;;;0.95;0.70;;;21.50;62.80;;;;;;4968335;28;87844;-60
2024/03/16 00:09:04;;;;;;;1.30;0.70;;;21.50;62.80;;;;;;4973968;28;87922;-61
2024/03/16 00:11:31;;;;;;;1.38;0.80;;;21.50;62.80;;;;;;4951710;28;87431;-61
2024/03/16 00:14:00;;;;;;;1.45;0.60;;;21.50;62.60;;;;;;4972702;28;86563;-61
2024/03/16 00:16:30;;;;;;;1.23;0.70;;;21.40;62.80;;;;;;4971527;28;88105;-61
2024/03/16 00:18:58;;;;;;;1.45;0.80;;;21.40;62.80;;;;;;4966143;28;87232;-61
2024/03/16 00:21:24;;;;;;;1.27;0.80;;;21.40;62.80;;;;;;4954585;28;88669;-60
2024/03/16 00:23:50;;;;;;;2.08;0.70;;;21.40;62.80;;;;;;4973555;28;87254;-61
2024/03/16 00:26:15;;;;;;;1.05;0.68;;;21.40;62.60;;;;;;4972536;28;87925;-61
2024/03/16 00:28:41;;;;;;;0.90;0.65;;;21.40;62.60;;;;;;4971925;28;87128;-60
2024/03/16 00:31:07;;;;;;;1.48;0.70;;;21.40;62.60;;;;;;4972279;28;90077;-61
2024/03/16 00:33:33;;;;;;;2.55;0.70;;;21.40;62.70;;;;;;4964538;28;87374;-62
2024/03/16 00:35:59;;;;;;;1.00;0.60;;;21.40;62.50;;;;;;4985335;28;87304;-60
2024/03/16 00:38:26;;;;;;;1.15;0.70;;;21.40;62.40;;;;;;4965647;28;89189;-61
2024/03/16 00:40:53;;;;;;;0.63;0.57;;;21.40;62.40;;;;;;4953673;28;87578;-61
2024/03/16 00:43:19;;;;;;;0.98;0.50;;;21.40;62.40;;;;;;4970540;28;87146;-61
2024/03/16 00:45:46;;;;;;;1.60;0.65;;;21.40;62.30;;;;;;4969795;28;90539;-61
2024/03/16 00:48:12;;;;;;;1.05;0.90;;;21.40;62.30;;;;;;4954792;28;87916;-61
2024/03/16 00:50:39;;;;;;;1.48;0.70;;;21.40;62.50;;;;;;4972882;28;87174;-60
2024/03/16 00:53:05;;;;;;;0.82;0.70;;;21.30;62.30;;;;;;4969094;28;88977;-60
2024/03/16 00:55:31;;;;;;;1.73;0.68;;;21.30;62.40;;;;;;4971481;28;88050;-61
2024/03/16 00:57:58;;;;;;;0.73;0.50;;;21.30;62.50;;;;;;4971361;28;87093;-62
2024/03/16 01:00:25;;;;;;;0.55;0.50;;;21.30;62.50;;;;;;4971562;28;87376;-61
2024/03/16 01:02:53;;;;;;;1.88;0.60;;;21.30;62.50;;;;;;4973782;28;86818;-61
2024/03/16 01:05:19;;;;;;;1.63;0.98;;;21.30;62.30;;;;;;4954687;28;89212;-60
2024/03/16 01:07:45;;;;;;;1.65;0.68;;;21.30;62.40;;;;;;4971357;28;88549;-61
2024/03/16 01:10:11;;;;;;;0.90;0.70;;;21.30;62.30;;;;;;4971750;28;88377;-61
2024/03/16 01:12:37;;;;;;;1.52;1.08;;;21.30;62.20;;;;;;4972256;28;87219;-61
2024/03/16 01:15:05;;;;;;;1.33;0.93;;;21.30;62.30;;;;;;4971342;28;87666;-61
2024/03/16 01:17:31;;;;;;;1.02;0.60;;;21.30;62.30;;;;;;4970070;28;87791;-61
2024/03/16 01:19:57;;;;;;;0.68;0.55;;;21.30;62.20;;;;;;4972777;28;86963;-61
2024/03/16 01:22:22;;;;;;;3.10;1.00;;;21.30;62.20;;;;;;4972754;28;87500;-61
2024/03/16 01:24:49;;;;;;;1.35;0.80;;;21.20;62.20;;;;;;4970381;28;88890;-60
2024/03/16 01:27:15;;;;;;;0.90;0.50;;;21.30;62.30;;;;;;4971723;28;88705;-62
2024/03/16 01:29:41;;;;;;;1.45;0.70;;;21.20;62.10;;;;;;4972913;28;87516;-61
2024/03/16 01:32:08;;;;;;;1.80;0.70;;;21.20;62.10;;;;;;4971515;28;87472;-60
2024/03/16 01:34:35;;;;;;;1.60;0.85;;;21.20;62.20;;;;;;4971523;28;89061;-61
2024/03/16 01:37:01;;;;;;;1.05;0.65;;;21.20;62.40;;;;;;4971821;28;89247;-61
2024/03/16 01:39:26;;;;;;;2.00;0.70;;;21.20;62.10;;;;;;4972127;28;87428;-61
2024/03/16 01:41:52;;;;;;;0.70;0.60;;;21.20;62.20;;;;;;4971721;28;87376;-60
2024/03/16 01:44:18;;;;;;;1.25;0.80;;;21.20;62.10;;;;;;4971874;28;88135;-62
2024/03/16 01:46:44;;;;;;;1.65;0.80;;;21.20;62.20;;;;;;4971245;28;87676;-61
2024/03/16 01:49:09;;;;;;;0.95;0.70;;;21.20;62.20;;;;;;4991499;28;87288;-60
2024/03/16 01:51:37;;;;;;;1.65;0.70;;;21.20;62.20;;;;;;4972946;28;88101;-61
2024/03/16 01:54:02;;;;;;;0.95;0.60;;;21.20;62.20;;;;;;4978668;28;88275;-61
2024/03/16 01:56:29;;;;;;;2.67;0.88;;;21.20;62.00;;;;;;4970054;28;87030;-61
2024/03/16 01:58:55;;;;;;;1.52;0.70;;;21.20;62.20;;;;;;4970267;28;87928;-61
2024/03/16 02:01:21;;;;;;;0.63;0.50;;;21.20;62.20;;;;;;4970768;28;89635;-60
2024/03/16 02:03:48;;;;;;;0.68;0.52;;;21.20;61.90;;;;;;4952340;28;88799;-62
2024/03/16 02:06:15;;;;;;;2.03;0.77;;;21.20;62.00;;;;;;4973535;28;88263;-61
2024/03/16 02:08:41;;;;;;;1.15;0.80;;;21.20;62.00;;;;;;4973956;28;87500;-60
2024/03/16 02:11:07;;;;;;;1.23;0.50;;;21.10;61.90;;;;;;4955920;28;87199;-62
2024/03/16 02:13:32;;;;;;;0.70;0.50;;;21.10;62.00;;;;;;4972921;28;87848;-61
2024/03/16 02:15:58;;;;;;;0.93;0.70;;;21.10;61.90;;;;;;4974344;28;86864;-60
2024/03/16 02:18:24;;;;;;;0.98;0.50;;;21.10;61.80;;;;;;4957094;28;87383;-60
2024/03/16 02:20:50;;;;;;;0.50;0.30;;;21.20;62.00;;;;;;4972127;28;87292;-60
2024/03/16 02:23:15;;;;;;;2.05;1.00;;;21.10;61.80;;;;;;4967099;28;89057;-61
2024/03/16 02:25:44;;;;;;;1.17;0.55;;;21.10;61.70;;;;;;4974684;28;88778;-61
2024/03/16 02:28:11;;;;;;;1.67;0.85;;;21.10;61.90;;;;;;4973537;28;87356;-61
2024/03/16 02:30:37;;;;;;;1.48;0.50;;;21.10;61.70;;;;;;4972757;28;87533;-61
2024/03/16 02:33:06;;;;;;;1.48;0.73;;;21.10;61.90;;;;;;4975905;28;88045;-61
2024/03/16 02:35:32;;;;;;;1.80;0.70;;;21.10;62.00;;;;;;4974253;28;86919;-61
2024/03/16 02:37:58;;;;;;;1.20;0.60;;;21.10;61.70;;;;;;4974808;28;87539;-61
2024/03/16 02:40:24;;;;;;;1.20;0.63;;;21.10;61.90;;;;;;4969615;28;86728;-62
2024/03/16 02:42:50;;;;;;;1.00;0.60;;;21.10;61.80;;;;;;4956165;28;88654;-60
2024/03/16 02:45:16;;;;;;;0.70;0.55;;;21.10;61.80;;;;;;4971807;28;87857;-60
2024/03/16 02:47:43;;;;;;;1.00;0.73;;;21.00;61.80;;;;;;4975460;28;88152;-61
2024/03/16 02:50:10;;;;;;;0.50;0.50;;;21.00;61.70;;;;;;4968802;28;87573;-60
2024/03/16 02:52:39;;;;;;;1.23;0.80;;;21.00;61.80;;;;;;4967587;28;88073;-61
2024/03/16 02:55:05;;;;;;;0.77;0.50;;;21.00;61.70;;;;;;4968469;28;87734;-61
2024/03/16 02:57:31;;;;;;;0.63;0.60;;;21.00;61.60;;;;;;4975290;28;87409;-60
2024/03/16 02:59:57;;;;;;;0.60;0.50;;;21.00;61.60;;;;;;4957205;28;87485;-60
2024/03/16 03:02:23;;;;;;;1.85;1.02;;;21.10;61.60;;;;;;4971431;28;87247;-63
2024/03/16 03:04:50;;;;;;;0.80;0.80;;;21.00;61.60;;;;;;4973958;28;88408;-61
2024/03/16 03:07:17;;;;;;;1.42;0.77;;;21.00;61.60;;;;;;4952807;28;87196;-61
2024/03/16 03:09:44;;;;;;;1.10;0.82;;;21.00;61.50;;;;;;4972849;28;88198;-61
2024/03/16 03:12:10;;;;;;;4.82;0.70;;;21.00;61.50;;;;;;4955576;28;89904;-60
2024/03/16 03:14:36;;;;;;;0.60;0.50;;;21.00;61.60;;;;;;4972520;28;88625;-61
2024/03/16 03:17:02;;;;;;;0.93;0.52;;;21.00;61.40;;;;;;4969738;28;87646;-62
2024/03/16 03:19:28;;;;;;;0.60;0.40;;;21.00;61.60;;;;;;4974167;28;87289;-60
2024/03/16 03:21:55;;;;;;;0.95;0.50;;;21.00;61.50;;;;;;4966028;28;88908;-62
2024/03/16 03:24:20;;;;;;;1.42;0.60;;;21.00;61.50;;;;;;4971135;28;88343;-60
2024/03/16 03:26:46;;;;;;;0.75;0.68;;;21.00;61.40;;;;;;4974337;28;87572;-61
2024/03/16 03:29:12;;;;;;;0.52;0.52;;;21.00;61.60;;;;;;4972176;28;86301;-61
2024/03/16 03:31:38;;;;;;;0.55;0.47;;;20.90;61.50;;;;;;4970864;28;88613;-61
2024/03/16 03:34:03;;;;;;;1.33;0.70;;;20.90;61.40;;;;;;4954049;28;88463;-60
2024/03/16 03:36:30;;;;;;;0.77;0.50;;;20.90;61.40;;;;;;4972962;28;87957;-60
2024/03/16 03:38:56;;;;;;;0.60;0.50;;;21.00;61.40;;;;;;4965898;28;87868;-61
2024/03/16 03:41:22;;;;;;;0.98;0.70;;;21.00;61.60;;;;;;4991365;28;88466;-61
2024/03/16 03:43:57;;;;;;;0.85;0.57;;;21.00;61.50;;;;;;4993303;28;88439;-61
2024/03/16 03:46:39;;;;;;;0.40;0.40;;;21.00;61.50;;;;;;4981167;28;87395;-61
2024/03/16 03:49:14;;;;;;;1.30;0.65;;;20.90;61.30;;;;;;4972966;28;86983;-60
2024/03/16 03:51:40;;;;;;;0.43;0.40;;;20.90;61.20;;;;;;4970110;28;87442;-60
2024/03/16 03:54:07;;;;;;;1.05;0.60;;;21.00;61.40;;;;;;4974573;28;88178;-60
2024/03/16 03:56:35;;;;;;;1.45;0.80;;;20.90;61.20;;;;;;4955757;28;87964;-61
2024/03/16 03:59:02;;;;;;;0.53;0.47;;;20.90;61.40;;;;;;4973783;28;87143;-60
2024/03/16 04:01:28;;;;;;;1.25;0.57;;;20.90;61.20;;;;;;4971682;28;90441;-61
2024/03/16 04:03:56;;;;;;;1.30;0.63;;;20.90;61.20;;;;;;4971546;28;89775;-61
2024/03/16 04:06:24;;;;;;;2.47;0.60;;;20.90;61.20;;;;;;4955421;28;87741;-61
2024/03/16 04:08:50;;;;;;;0.73;0.50;;;20.90;61.30;;;;;;4973231;28;88157;-61
2024/03/16 04:11:15;;;;;;;1.60;0.60;;;20.90;61.10;;;;;;4972099;28;87700;-61
2024/03/16 04:13:42;;;;;;;1.27;0.63;;;20.90;61.30;;;;;;4972685;28;87710;-61
2024/03/16 04:16:09;;;;;;;0.77;0.60;;;20.90;61.20;;;;;;4954122;28;87602;-60
2024/03/16 04:18:35;;;;;;;1.63;0.70;;;20.90;61.30;;;;;;4970115;28;87899;-61
2024/03/16 04:21:02;;;;;;;0.40;0.40;;;20.80;61.10;;;;;;4973480;28;88704;-61
2024/03/16 04:23:28;;;;;;;0.80;0.60;;;20.80;61.10;;;;;;4971349;28;88942;-60
2024/03/16 04:25:54;;;;;;;0.57;0.57;;;20.90;61.30;;;;;;4954524;28;87982;-62
2024/03/16 04:28:19;;;;;;;0.40;0.40;;;20.90;61.10;;;;;;4972432;28;87695;-61
2024/03/16 04:30:45;;;;;;;0.40;0.40;;;20.90;61.20;;;;;;4973159;28;87895;-60
2024/03/16 04:33:11;;;;;;;0.82;0.70;;;20.90;61.20;;;;;;4971885;28;87300;-61
2024/03/16 04:35:37;;;;;;;0.73;0.52;;;20.90;61.20;;;;;;4967418;28;87405;-60
2024/03/16 04:38:03;;;;;;;0.30;0.30;;;20.80;61.10;;;;;;4969900;28;87446;-61
2024/03/16 04:40:30;;;;;;;0.40;0.40;;;20.90;61.10;;;;;;4955107;28;88488;-61
2024/03/16 04:42:56;;;;;;;1.05;0.70;;;20.80;61.10;;;;;;4973256;28;87671;-61
2024/03/16 04:45:22;;;;;;;0.90;0.40;;;20.80;61.10;;;;;;4971715;28;87007;-61
2024/03/16 04:47:48;;;;;;;0.85;0.45;;;20.80;61.10;;;;;;4972518;28;87230;-62
2024/03/16 04:50:15;;;;;;;1.25;0.73;;;20.80;61.00;;;;;;4970008;28;88969;-61
2024/03/16 04:52:41;;;;;;;1.02;0.70;;;20.80;61.10;;;;;;4973593;28;88704;-60
2024/03/16 04:55:08;;;;;;;0.55;0.50;;;20.80;61.00;;;;;;4951995;28;87232;-61
2024/03/16 04:57:33;;;;;;;0.65;0.50;;;20.80;61.00;;;;;;4964337;28;87914;-61
2024/03/16 05:00:02;;;;;;;0.73;0.57;;;20.80;61.00;;;;;;4989955;28;89174;-62
2024/03/16 05:02:28;;;;;;;0.63;0.50;;;20.80;61.00;;;;;;4972368;28;90649;-61
2024/03/16 05:04:54;;;;;;;1.00;0.88;;;20.80;60.90;;;;;;4986040;28;87053;-62
2024/03/16 05:07:19;;;;;;;0.63;0.50;;;20.80;61.00;;;;;;4989214;28;86334;-60
2024/03/16 05:09:49;;;;;;;0.68;0.52;;;20.80;61.00;;;;;;4991218;28;87242;-61
2024/03/16 05:12:18;;;;;;;0.82;0.55;;;20.80;60.70;;;;;;4973939;28;88519;-60
2024/03/16 05:14:43;;;;;;;0.90;0.40;;;20.70;61.10;;;;;;4991803;28;87868;-61
2024/03/16 05:17:09;;;;;;;0.82;0.60;;;20.80;61.00;;;;;;4990737;28;87414;-61
2024/03/16 05:19:38;;;;;;;0.70;0.60;;;20.70;60.90;;;;;;4987829;28;88146;-61
2024/03/16 05:22:10;;;;;;;1.85;0.82;;;20.80;61.00;;;;;;4973485;28;88217;-61
2024/03/16 05:24:38;;;;;;;0.50;0.50;;;20.70;61.00;;;;;;4980484;28;87317;-61
2024/03/16 05:27:06;;;;;;;0.75;0.60;;;20.70;61.00;;;;;;5002562;28;87398;-61
2024/03/16 05:29:35;;;;;;;1.03;0.50;;;20.70;60.90;;;;;;4965009;28;88872;-61
2024/03/16 05:32:03;;;;;;;1.10;0.60;;;20.70;60.90;;;;;;4954100;28;88150;-61
2024/03/16 05:34:29;;;;;;;0.55;0.40;;;20.70;60.90;;;;;;4953947;28;87637;-62
2024/03/16 05:36:55;;;;;;;3.45;0.50;;;20.70;61.00;;;;;;4970573;28;87005;-60
2024/03/16 05:39:24;;;;;;;1.00;0.80;;;20.70;61.10;;;;;;4953647;28;89612;-60
2024/03/16 05:41:57;;;;;;;0.50;0.35;;;20.70;60.90;;;;;;4967975;28;89271;-61
2024/03/16 05:44:25;;;;;;;2.65;0.40;;;20.70;60.80;;;;;;4947922;28;87153;-61
2024/03/16 05:46:53;;;;;;;0.40;0.40;;;20.70;61.00;;;;;;4956609;28;87172;-61
2024/03/16 05:49:19;;;;;;;0.50;0.50;;;20.70;60.80;;;;;;4946565;28;89573;-62
2024/03/16 05:51:45;;;;;;;1.05;0.60;;;20.70;60.80;;;;;;4972730;28;88142;-62
2024/03/16 05:54:11;;;;;;;1.00;0.70;;;20.70;60.70;;;;;;4974251;28;88398;-60
2024/03/16 05:56:39;;;;;;;0.70;0.50;;;20.70;60.70;;;;;;4948413;28;87684;-61
2024/03/16 05:59:08;;;;;;;0.88;0.50;;;20.70;60.60;;;;;;4974095;28;89027;-62
2024/03/16 06:01:37;;;;;;;0.57;0.57;;;20.70;60.70;;;;;;4974998;28;87740;-62
2024/03/16 06:04:04;;;;;;;1.23;0.75;;;20.70;60.80;;;;;;4949900;28;88475;-60
2024/03/16 06:06:31;;;;;;;1.10;0.75;;;20.70;60.80;;;;;;4965354;28;87473;-61
2024/03/16 06:08:58;;;;;;;0.55;0.40;;;20.70;60.70;;;;;;4975938;28;88499;-62
2024/03/16 06:11:24;;;;;;;0.40;0.38;;;20.70;60.90;;;;;;4946601;28;87214;-63
2024/03/16 06:13:51;;;;;;;0.40;0.40;;;20.60;60.80;;;;;;4989024;28;87876;-61
2024/03/16 06:16:17;;;;;;;0.50;0.50;;;20.70;60.70;;;;;;4974338;28;87444;-61
2024/03/16 06:18:47;;;;;;;0.70;0.57;;;20.60;60.70;;;;;;4974277;28;87543;-62
2024/03/16 06:21:14;;;;;;;0.52;0.40;;;20.60;60.60;;;;;;4955477;28;88853;-61
2024/03/16 06:23:39;;;;;;;1.05;0.55;;;20.60;60.50;;;;;;4974804;28;87418;-60
2024/03/16 06:26:06;;;;;;;0.70;0.45;;;20.60;60.50;;;;;;4964232;28;87057;-62
2024/03/16 06:28:36;;;;;;;0.60;0.43;;;20.60;60.40;;;;;;4969209;28;90323;-61
2024/03/16 06:31:07;;;;;;;0.90;0.50;;;20.60;61.40;;;;;;4968214;28;90094;-61
2024/03/16 06:33:33;;;;;;;0.50;0.35;;;20.60;60.70;;;;;;4955034;28;87202;-60
2024/03/16 06:36:00;;;;;;;0.70;0.57;;;20.60;60.70;;;;;;4956634;28;88586;-61
2024/03/16 06:38:29;;;;;;;0.88;0.60;;;20.60;60.70;;;;;;4954591;28;89115;-62
2024/03/16 06:40:55;;;;;;;0.60;0.32;;;20.60;60.60;;;;;;4973192;28;87890;-60
2024/03/16 06:43:22;;;;;;;0.55;0.45;;;20.60;60.90;;;;;;4972950;28;87327;-62
2024/03/16 06:45:47;;;;;;;1.10;0.50;;;20.60;60.50;;;;;;4973584;28;87826;-60
2024/03/16 06:48:13;;;;;;;0.85;0.50;;;20.60;60.70;;;;;;4975250;28;88161;-61
2024/03/16 06:50:40;;;;;;;0.50;0.40;;;20.60;60.50;;;;;;4972188;28;87700;-61
2024/03/16 06:53:06;;;;;;;1.58;0.50;;;20.60;60.60;;;;;;4963734;28;88322;-61
2024/03/16 06:55:32;;;;;;;0.45;0.35;;;20.60;60.50;;;;;;4972173;28;86974;-61
2024/03/16 06:57:57;;;;;;;0.60;0.45;;;20.60;60.50;;;;;;4973933;28;87694;-60
2024/03/16 07:00:24;;;;;;;0.47;0.40;;;20.60;60.50;;;;;;4973785;28;87807;-61
2024/03/16 07:02:49;;;;;;;1.52;0.50;;;20.60;60.50;;;;;;4974957;28;87423;-61
2024/03/16 07:05:17;;;;;;;0.40;0.40;;;20.60;60.40;;;;;;4974346;28;87506;-61
2024/03/16 07:07:43;;;;;;;1.00;0.70;;;20.60;60.40;;;;;;4970691;28;88547;-61
2024/03/16 07:10:10;;;;;;;0.50;0.40;;;20.60;60.30;;;;;;4974571;28;87355;-60
2024/03/16 07:12:36;;;;;;;0.98;0.50;;;20.60;60.30;;;;;;4956270;28;88776;-61
2024/03/16 07:15:05;;;;;;;0.52;0.50;;;20.70;60.30;;;;;;4956390;28;87705;-61
2024/03/16 07:17:31;;;;;;;1.35;1.02;;;20.70;60.50;;;;;;4953278;28;90136;-61
2024/03/16 07:19:57;;;;;;;0.95;0.52;;;20.70;60.30;;;;;;4972914;28;88671;-61
2024/03/16 07:22:23;;;;;;;1.55;0.75;;;20.70;60.40;;;;;;4973163;28;87540;-62
2024/03/16 07:24:49;;;;;;;0.57;0.40;;;20.70;60.30;;;;;;4971102;28;87293;-61
2024/03/16 07:27:15;;;;;;;0.60;0.57;;;20.70;60.20;;;;;;4954014;28;89080;-61
2024/03/16 07:29:43;;;;;;;0.52;0.43;;;20.70;60.00;;;;;;4971071;28;87983;-61
2024/03/16 07:32:10;;;;;;;0.93;0.70;;;20.70;60.20;;;;;;4967561;28;87093;-60
2024/03/16 07:34:37;;;;;;;0.77;0.60;;;20.70;60.10;;;;;;4954871;28;86802;-61
2024/03/16 07:37:04;;;;;;;1.60;0.50;;;20.70;60.10;;;;;;4973652;28;88019;-61
2024/03/16 07:39:30;;;;;;;1.40;0.80;;;20.70;60.00;;;;;;4972709;28;88540;-60
2024/03/16 07:41:55;;;;;;;0.95;0.40;;;20.70;59.90;;;;;;4972108;28;88643;-60
2024/03/16 07:44:21;;;;;;;0.68;0.50;;;20.70;60.00;;;;;;4973331;28;87423;-61
2024/03/16 07:46:48;;;;;;;0.70;0.60;;;20.70;60.30;;;;;;4967923;28;88025;-61
2024/03/16 07:49:14;;;;;;;1.15;0.82;;;20.70;60.40;;;;;;4972668;28;87882;-61
2024/03/16 07:51:43;;;;;;;0.88;0.63;;;20.80;60.60;;;;;;4972465;28;87478;-61
2024/03/16 07:54:12;;;;;;;3.92;1.17;;;20.80;60.90;;;;;;4973282;28;87257;-60
2024/03/16 07:56:38;;;;;;;1.27;1.00;;;20.90;60.40;;;;;;4973225;28;92571;-60
2024/03/16 07:59:04;;;;;;;3.03;0.90;;;21.00;60.50;;;;;;4972345;28;87251;-62
2024/03/16 08:01:31;;;;;;;1.33;0.88;;;21.00;60.60;;;;;;4966114;28;87373;-62
2024/03/16 08:03:58;;;;;;;1.55;0.93;;;21.10;60.60;;;;;;4964476;28;88215;-62
2024/03/16 08:06:23;;;;;;;3.25;1.13;;;21.20;60.40;;;;;;4971003;28;89703;-60
2024/03/16 08:08:50;;;;;;;3.42;0.80;;;21.20;59.90;;;;;;4968685;28;89124;-61
2024/03/16 08:11:20;;;;;;;1.73;0.80;;;21.30;59.80;;;;;;4972054;28;87326;-61
2024/03/16 08:13:48;;;;;;;1.30;0.60;;;21.30;59.60;;;;;;4969695;28;89762;-61
2024/03/16 08:16:16;;;;;;;0.83;0.63;;;21.30;59.70;;;;;;4953603;28;89082;-61
2024/03/16 08:18:44;;;;;;;1.65;0.73;;;21.30;59.60;;;;;;4962781;28;87349;-62
2024/03/16 08:21:13;;;;;;;1.73;0.85;;;21.30;59.60;;;;;;4986257;28;86979;-61
2024/03/16 08:23:38;;;;;;;1.63;0.63;;;21.30;60.20;;;;;;4973772;28;91302;-61
2024/03/16 08:26:05;;;;;;;1.38;0.60;;;21.30;59.40;;;;;;4970855;28;88857;-61
2024/03/16 08:28:31;;;;;;;3.00;1.58;;;21.20;59.30;;;;;;4971544;28;88294;-62
2024/03/16 08:30:57;;;;;;;1.00;0.70;;;21.20;59.20;;;;;;4971389;28;88317;-61
2024/03/16 08:33:24;;;;;;;0.60;0.50;;;21.20;59.00;;;;;;4947259;28;87859;-61
2024/03/16 08:35:50;;;;;;;1.55;0.68;;;21.20;58.50;;;;;;4970088;28;88722;-62
2024/03/16 08:38:16;;;;;;;1.33;0.73;;;21.10;58.80;;;;;;4952672;28;89160;-61
2024/03/16 08:40:42;;;;;;;1.45;0.57;;;21.10;59.30;;;;;;4951539;28;87150;-63
2024/03/16 08:43:08;;;;;;;10.02;2.15;;;21.10;59.40;;;;;;4971091;28;88216;-60
2024/03/16 08:45:36;;;;;;;19.08;4.53;;;21.10;58.80;;;;;;4972627;28;88072;-60
2024/03/16 08:48:04;;;;;;;13.02;2.85;;;21.10;58.80;;;;;;4954917;28;88334;-62
2024/03/16 08:50:30;;;;;;;13.90;3.22;;;21.10;58.90;;;;;;4970604;28;87243;-60
2024/03/16 08:52:56;;;;;;;13.30;3.33;;;21.00;59.00;;;;;;4968762;28;87572;-61
2024/03/16 08:55:23;;;;;;;21.00;3.47;;;21.10;58.90;;;;;;4980201;28;90053;-60
2024/03/16 08:57:49;;;;;;;11.52;2.40;;;21.00;58.60;;;;;;4968188;28;88868;-60
2024/03/16 09:00:14;;;;;;;16.08;2.33;;;21.00;59.30;;;;;;4972101;28;87333;-61
2024/03/16 09:02:40;;;;;;;8.63;1.75;;;21.00;59.30;;;;;;4970737;28;88051;-62
2024/03/16 09:05:13;;;;;;;16.90;2.83;;;21.10;58.00;;;;;;4966298;28;87243;-61
2024/03/16 09:07:39;;;;;;;12.15;2.33;;;21.10;58.20;;;;;;4970346;28;87900;-61
2024/03/16 09:10:10;;;;;;;11.05;2.50;;;21.10;58.00;;;;;;4972063;28;87591;-61
2024/03/16 09:12:37;;;;;;;7.90;2.20;;;21.10;57.80;;;;;;4971263;28;86945;-61
2024/03/16 09:15:06;;;;;;;14.57;2.88;;;21.20;58.60;;;;;;4968364;28;89200;-61
2024/03/16 09:17:36;;;;;;;9.45;2.17;;;21.20;58.40;;;;;;4990609;28;87793;-61
2024/03/16 09:20:07;;;;;;;7.90;2.70;;;21.20;58.50;;;;;;4979683;28;88040;-61
2024/03/16 09:22:34;;;;;;;15.25;4.43;;;21.20;58.40;;;;;;4971851;28;86910;-61
2024/03/16 09:25:05;;;;;;;7.43;2.05;;;21.20;58.50;;;;;;4975104;28;87819;-61
2024/03/16 09:27:40;;;;;;;10.77;2.92;;;21.20;58.30;;;;;;4969872;28;87367;-61
2024/03/16 09:30:08;;;;;;;11.02;2.30;;;21.20;58.30;;;;;;4954383;28;87083;-61
2024/03/16 09:32:36;;;;;;;13.02;1.90;;;21.20;58.00;;;;;;4959634;28;87521;-61
2024/03/16 09:35:06;;;;;;;10.48;2.47;;;21.20;57.40;;;;;;4971482;28;87572;-62
2024/03/16 09:37:31;;;;;;;14.05;2.80;;;21.20;57.50;;;;;;4952938;28;89193;-62
2024/03/16 09:39:57;;;;;;;13.30;3.38;;;21.10;57.70;;;;;;4971296;28;87442;-60
2024/03/16 09:42:23;;;;;;;9.45;3.15;;;21.10;57.90;;;;;;4953088;28;89516;-61
2024/03/16 09:44:49;;;;;;;16.33;3.42;;;21.10;57.80;;;;;;4953434;28;90439;-61
2024/03/16 09:47:16;;;;;;;17.25;3.97;;;21.10;57.50;;;;;;4968516;28;89388;-60
2024/03/16 09:49:43;;;;;;;8.02;2.33;;;21.10;57.20;;;;;;4952278;28;86875;-61
2024/03/16 09:52:16;;;;;;;8.95;2.58;;;21.10;57.20;;;;;;4969534;28;87425;-60
2024/03/16 09:54:45;;;;;;;9.20;2.85;;;21.10;57.30;;;;;;4970383;28;87677;-60
2024/03/16 09:57:17;;;;;;;14.30;3.47;;;21.10;57.50;;;;;;4969894;28;88160;-60
2024/03/16 09:59:48;;;;;;;12.05;2.47;;;21.10;57.50;;;;;;4964504;28;86968;-60
2024/03/16 10:02:21;;;;;;;9.40;2.22;;;21.10;57.30;;;;;;4997262;28;88449;-61
2024/03/16 10:04:51;;;;;;;10.02;2.45;;;21.10;58.00;;;;;;4971213;28;88639;-61
2024/03/16 10:07:17;;;;;;;11.43;2.58;;;21.10;57.90;;;;;;4990199;28;88440;-61
2024/03/16 10:09:55;;;;;;;9.90;2.47;;;21.10;57.60;;;;;;4990216;28;90871;-60
2024/03/16 10:12:22;;;;;;;11.43;2.35;;;21.10;57.50;;;;;;4971394;28;87505;-60
2024/03/16 10:15:08;;;;;;;11.07;2.63;;;21.20;57.60;;;;;;4989454;28;88995;-62
2024/03/16 10:17:38;;;;;;;10.77;2.28;;;21.10;57.70;;;;;;4988679;28;88731;-60
2024/03/16 10:20:15;;;;;;;7.25;1.98;;;21.10;58.00;;;;;;4977243;28;87229;-61
2024/03/16 10:22:50;;;;;;;10.45;2.60;;;21.10;57.50;;;;;;4969070;28;87297;-61
2024/03/16 10:25:17;;;;;;;7.05;1.92;;;21.10;56.40;;;;;;4965451;28;87915;-60
2024/03/16 10:27:44;;;;;;;9.55;2.75;;;21.10;56.40;;;;;;4955232;28;88704;-61
2024/03/16 10:30:13;;;;;;;10.23;2.65;;;21.10;56.80;;;;;;4974127;28;87967;-62
2024/03/16 10:32:48;;;;;;;6.53;2.10;;;21.10;56.30;;;;;;4954685;28;91891;-61
2024/03/16 10:35:16;;;;;;;8.35;2.17;;;21.00;55.20;;;;;;4970322;28;88417;-60
2024/03/16 10:37:42;;;;;;;8.05;1.73;;;21.00;54.90;;;;;;4966895;28;88552;-60
2024/03/16 10:40:19;;;;;;;9.85;2.80;;;21.10;55.90;;;;;;4973443;28;87348;-60
2024/03/16 10:42:46;;;;;;;8.13;2.00;;;21.10;56.40;;;;;;4974311;28;87483;-60
2024/03/16 10:45:20;;;;;;;9.35;2.28;;;21.10;56.40;;;;;;4973098;28;88085;-62
2024/03/16 10:47:53;;;;;;;23.88;3.50;;;21.20;56.00;;;;;;4973513;28;93217;-60
2024/03/16 10:50:24;;;;;;;21.67;4.18;;;21.10;54.50;;;;;;4974838;28;87177;-60
2024/03/16 10:52:51;;;;;;;24.90;5.10;;;21.10;54.00;;;;;;4973874;28;87264;-61
2024/03/16 10:55:24;;;;;;;15.45;4.03;;;21.10;53.70;;;;;;4972164;28;87440;-61
2024/03/16 10:57:54;;;;;;;21.55;5.22;;;21.10;52.90;;;;;;4972358;28;87264;-60
2024/03/16 11:00:34;;;;;;;17.48;3.80;;;21.00;52.80;;;;;;4967209;28;88349;-60
2024/03/16 11:03:01;;;;;;;13.07;2.85;;;21.10;54.10;;;;;;4973206;28;87381;-61
2024/03/16 11:05:35;;;;;;;10.07;2.80;;;21.10;55.70;;;;;;4972520;28;87296;-60
2024/03/16 11:08:23;;;;;;;15.13;3.42;;;21.20;56.10;;;;;;4972236;28;88101;-59
2024/03/16 11:10:51;;;;;;;14.70;4.45;;;21.30;56.30;;;;;;4972773;28;87273;-60
2024/03/16 11:13:22;;;;;;;17.40;3.38;;;21.40;56.60;;;;;;4973933;28;87719;-60
2024/03/16 11:15:49;;;;;;;10.05;3.45;;;21.50;56.60;;;;;;4954573;28;89270;-60
2024/03/16 11:18:18;;;;;;;14.20;3.20;;;21.60;56.70;;;;;;4971469;28;87932;-61
2024/03/16 11:20:50;;;;;;;17.55;3.17;;;21.60;56.80;;;;;;4974908;28;87391;-60
2024/03/16 11:23:24;;;;;;;13.73;4.20;;;21.60;56.70;;;;;;4973939;28;87062;-62
2024/03/16 11:25:51;;;;;;;10.40;2.78;;;21.60;56.90;;;;;;4972329;28;88369;-60
2024/03/16 11:28:18;;;;;;;8.00;2.70;;;21.60;57.10;;;;;;4951041;28;90096;-60
2024/03/16 11:30:46;;;;;;;11.00;2.78;;;21.70;57.20;;;;;;4972454;28;87729;-60
2024/03/16 11:33:22;;;;;;;14.77;2.90;;;21.60;57.40;;;;;;4937832;28;87994;-60
2024/03/16 11:35:49;;;;;;;12.27;2.95;;;21.60;56.90;;;;;;4946133;28;93592;-61
2024/03/16 11:38:21;;;;;;;8.85;2.45;;;21.60;57.10;;;;;;4949691;28;88414;-62
2024/03/16 11:40:48;;;;;;;10.77;3.15;;;21.60;57.40;;;;;;4946063;28;87456;-60
2024/03/16 11:43:15;;;;;;;5.38;2.30;;;21.60;57.50;;;;;;4956053;28;87582;-61
2024/03/16 11:45:46;;;;;;;6.45;2.25;;;21.50;57.60;;;;;;4972278;28;88674;-61
2024/03/16 11:48:16;;;;;;;8.73;2.80;;;21.50;57.90;;;;;;4973282;28;88334;-60
2024/03/16 11:50:46;;;;;;;8.80;2.20;;;21.50;58.50;;;;;;4948818;28;88483;-60
2024/03/16 11:53:12;;;;;;;11.75;3.35;;;21.40;58.60;;;;;;4950931;28;87496;-60
2024/03/16 11:55:39;;;;;;;10.50;2.80;;;21.50;59.10;;;;;;4971838;28;88858;-60
2024/03/16 11:58:05;;;;;;;11.02;2.55;;;21.40;59.10;;;;;;4965688;28;87907;-62
2024/03/16 12:00:31;;;;;;;8.77;2.33;;;21.40;58.90;;;;;;4967905;28;87452;-60
2024/03/16 12:03:00;;;;;;;6.65;2.42;;;21.40;58.90;;;;;;4954693;28;87572;-61
2024/03/16 12:05:30;;;;;;;;;;;21.40;59.10;;;;;;4972657;28;88240;-61
2024/03/16 12:07:58;;;;;;;8.25;2.90;;;21.40;58.80;;;;;;4951082;28;88259;-61
2024/03/16 12:10:25;;;;;;;12.00;3.13;;;21.40;58.50;;;;;;4952645;28;87454;-62
2024/03/16 12:12:52;;;;;;;23.85;5.30;;;21.50;57.60;;;;;;4954945;28;88003;-61
2024/03/16 12:15:19;;;;;;;28.30;7.38;;;21.50;57.50;;;;;;4969857;28;89585;-59
2024/03/16 12:17:46;;;;;;;42.42;9.30;;;21.50;57.40;;;;;;4970631;28;88796;-60
2024/03/16 12:20:16;;;;;;;24.50;9.27;;;21.60;56.50;;;;;;4965379;28;87237;-60
2024/03/16 12:22:50;;;;;;;25.58;7.85;;;21.50;55.70;;;;;;4970638;28;87613;-60
2024/03/16 12:25:16;;;;;;;22.08;7.13;;;21.50;55.30;;;;;;4969824;28;89869;-60
2024/03/16 12:27:51;;;;;;;26.25;8.60;;;21.50;55.60;;;;;;4970669;28;87258;-60
2024/03/16 12:30:18;;;;;;;17.00;7.25;;;21.50;55.90;;;;;;4949595;28;87309;-60
2024/03/16 12:32:43;;;;;;;29.77;7.78;;;21.50;55.70;;;;;;4971884;28;86848;-60
2024/03/16 12:35:09;;;;;;;17.35;7.13;;;21.40;55.90;;;;;;4962231;28;88225;-60
2024/03/16 12:37:39;;;;;;;18.77;6.63;;;21.50;56.00;;;;;;4967921;28;90479;-60
2024/03/16 12:40:08;;;;;;;21.08;6.45;;;21.50;56.20;;;;;;4968512;28;88811;-60
2024/03/16 12:42:33;;;;;;;24.02;7.30;;;21.50;56.50;;;;;;4952851;28;88086;-60
2024/03/16 12:45:00;;;;;;;17.75;6.43;;;21.50;56.60;;;;;;4972310;28;87907;-60
2024/03/16 12:47:29;;;;;;;17.17;5.88;;;21.50;56.00;;;;;;4969307;28;87917;-61
2024/03/16 12:49:55;;;;;;;21.58;7.10;;;21.50;55.70;;;;;;4969593;28;87385;-60